sensor_id;sensor_type;location;lat;lon;timestamp;temperature;humidity
25328;DHT22;13279;51.300;12.394;2023-04-08T00:01:44;6.00;99.90
25328;DHT22;13279;51.300;12.394;2023-04-08T00:04:14;6.00;99.90
25328;DHT22;13279;51.300;12.394;2023-04-08T00:06:41;6.00;99.90
25328;DHT22;13279;51.300;12.394;2023-04-08T00:09:09;6.00;99.90
25328;DHT22;13279;51.300;12.394;2023-04-08T00:11:36;6.00;99.90
25328;DHT22;13279;51.300;12.394;2023-04-08T00:14:04;6.00;99.90
25328;DHT22;13279;51.300;12.394;2023-04-08T00:16:32;5.90;99.90
25328;DHT22;13279;51.300;12.394;2023-04-08T00:19:00;5.90;99.90
25328;DHT22;13279;51.300;12.394;2023-04-08T00:21:28;5.90;99.90
25328;DHT22;13279;51.300;12.394;2023-04-08T00:23:56;6.00;99.90
25328;DHT22;13279;51.300;12.394;2023-04-08T00:26:24;6.00;99.90
25328;DHT22;13279;51.300;12.394;2023-04-08T00:28:52;6.00;99.90
25328;DHT22;13279;51.300;12.394;2023-04-08T00:31:20;6.00;99.90
25328;DHT22;13279;51.300;12.394;2023-04-08T00:33:49;6.00;99.90
25328;DHT22;13279;51.300;12.394;2023-04-08T00:36:16;6.00;99.90
25328;DHT22;13279;51.300;12.394;2023-04-08T00:38:45;6.00;99.90
25328;DHT22;13279;51.300;12.394;2023-04-08T00:41:13;6.00;99.90
25328;DHT22;13279;51.300;12.394;2023-04-08T00:43:41;6.00;99.90
25328;DHT22;13279;51.300;12.394;2023-04-08T00:46:08;6.00;99.90
25328;DHT22;13279;51.300;12.394;2023-04-08T00:48:37;6.00;99.90
25328;DHT22;13279;51.300;12.394;2023-04-08T00:51:04;5.90;99.90
25328;DHT22;13279;51.300;12.394;2023-04-08T00:53:32;5.90;99.90
25328;DHT22;13279;51.300;12.394;2023-04-08T00:56:01;6.00;99.90
25328;DHT22;13279;51.300;12.394;2023-04-08T00:58:28;6.00;99.90
25328;DHT22;13279;51.300;12.394;2023-04-08T01:01:02;6.00;99.90
25328;DHT22;13279;51.300;12.394;2023-04-08T01:03:37;6.00;99.90
25328;DHT22;13279;51.300;12.394;2023-04-08T01:06:14;6.00;99.90
25328;DHT22;13279;51.300;12.394;2023-04-08T01:08:45;6.00;99.90
25328;DHT22;13279;51.300;12.394;2023-04-08T01:11:15;5.90;99.90
25328;DHT22;13279;51.300;12.394;2023-04-08T01:13:44;6.00;99.90
25328;DHT22;13279;51.300;12.394;2023-04-08T01:16:14;5.90;99.90
25328;DHT22;13279;51.300;12.394;2023-04-08T01:18:44;5.90;99.90
25328;DHT22;13279;51.300;12.394;2023-04-08T01:21:14;5.90;99.90
25328;DHT22;13279;51.300;12.394;2023-04-08T01:23:53;5.90;99.90
25328;DHT22;13279;51.300;12.394;2023-04-08T01:26:25;5.90;99.90
25328;DHT22;13279;51.300;12.394;2023-04-08T01:28:55;5.90;99.90
25328;DHT22;13279;51.300;12.394;2023-04-08T01:31:24;5.90;99.90
25328;DHT22;13279;51.300;12.394;2023-04-08T01:33:52;5.90;99.90
25328;DHT22;13279;51.300;12.394;2023-04-08T01:36:22;5.90;99.90
25328;DHT22;13279;51.300;12.394;2023-04-08T01:38:51;5.90;99.90
25328;DHT22;13279;51.300;12.394;2023-04-08T01:41:19;6.00;99.90
25328;DHT22;13279;51.300;12.394;2023-04-08T01:43:51;5.90;99.90
25328;DHT22;13279;51.300;12.394;2023-04-08T01:46:21;5.80;99.90
25328;DHT22;13279;51.300;12.394;2023-04-08T01:48:49;5.80;99.90
25328;DHT22;13279;51.300;12.394;2023-04-08T01:51:17;5.80;99.90
25328;DHT22;13279;51.300;12.394;2023-04-08T01:53:44;5.80;99.90
25328;DHT22;13279;51.300;12.394;2023-04-08T01:56:14;5.90;99.90
25328;DHT22;13279;51.300;12.394;2023-04-08T01:58:46;5.80;99.90
25328;DHT22;13279;51.300;12.394;2023-04-08T02:01:19;5.80;99.90
25328;DHT22;13279;51.300;12.394;2023-04-08T02:03:50;5.80;99.90
25328;DHT22;13279;51.300;12.394;2023-04-08T02:06:23;5.80;99.90
25328;DHT22;13279;51.300;12.394;2023-04-08T02:08:51;5.80;99.90
25328;DHT22;13279;51.300;12.394;2023-04-08T02:11:20;5.80;99.90
25328;DHT22;13279;51.300;12.394;2023-04-08T02:13:50;5.80;99.90
25328;DHT22;13279;51.300;12.394;2023-04-08T02:16:22;5.70;99.90
25328;DHT22;13279;51.300;12.394;2023-04-08T02:18:55;5.70;99.90
25328;DHT22;13279;51.300;12.394;2023-04-08T02:21:29;5.70;99.90
25328;DHT22;13279;51.300;12.394;2023-04-08T02:23:58;5.70;99.90
25328;DHT22;13279;51.300;12.394;2023-04-08T02:26:27;5.70;99.90
25328;DHT22;13279;51.300;12.394;2023-04-08T02:28:56;5.70;99.90
25328;DHT22;13279;51.300;12.394;2023-04-08T02:31:26;5.70;99.90
25328;DHT22;13279;51.300;12.394;2023-04-08T02:33:55;5.70;99.90
25328;DHT22;13279;51.300;12.394;2023-04-08T02:36:24;5.70;99.90
25328;DHT22;13279;51.300;12.394;2023-04-08T02:38:52;5.70;99.90
25328;DHT22;13279;51.300;12.394;2023-04-08T02:41:20;5.80;99.90
25328;DHT22;13279;51.300;12.394;2023-04-08T02:43:48;5.70;99.90
25328;DHT22;13279;51.300;12.394;2023-04-08T02:46:20;5.70;99.90
25328;DHT22;13279;51.300;12.394;2023-04-08T02:48:50;5.80;99.90
25328;DHT22;13279;51.300;12.394;2023-04-08T02:51:20;5.80;99.90
25328;DHT22;13279;51.300;12.394;2023-04-08T02:53:48;5.80;99.90
25328;DHT22;13279;51.300;12.394;2023-04-08T02:56:17;5.80;99.90
25328;DHT22;13279;51.300;12.394;2023-04-08T02:58:45;5.70;99.90
25328;DHT22;13279;51.300;12.394;2023-04-08T03:01:13;5.80;99.90
25328;DHT22;13279;51.300;12.394;2023-04-08T03:03:41;5.80;99.90
25328;DHT22;13279;51.300;12.394;2023-04-08T03:06:10;5.70;99.90
25328;DHT22;13279;51.300;12.394;2023-04-08T03:08:38;5.70;99.90
25328;DHT22;13279;51.300;12.394;2023-04-08T03:11:06;5.80;99.90
25328;DHT22;13279;51.300;12.394;2023-04-08T03:13:36;5.70;99.90
25328;DHT22;13279;51.300;12.394;2023-04-08T03:16:04;5.80;99.90
25328;DHT22;13279;51.300;12.394;2023-04-08T03:18:32;5.70;99.90
25328;DHT22;13279;51.300;12.394;2023-04-08T03:21:00;5.70;99.90
25328;DHT22;13279;51.300;12.394;2023-04-08T03:23:29;5.70;99.90
25328;DHT22;13279;51.300;12.394;2023-04-08T03:25:57;5.70;99.90
25328;DHT22;13279;51.300;12.394;2023-04-08T03:28:25;5.70;99.90
25328;DHT22;13279;51.300;12.394;2023-04-08T03:30:52;5.70;99.90
25328;DHT22;13279;51.300;12.394;2023-04-08T03:33:20;5.70;99.90
25328;DHT22;13279;51.300;12.394;2023-04-08T03:35:48;5.70;99.90
25328;DHT22;13279;51.300;12.394;2023-04-08T03:38:16;5.70;99.90
25328;DHT22;13279;51.300;12.394;2023-04-08T03:40:44;5.70;99.90
25328;DHT22;13279;51.300;12.394;2023-04-08T03:43:12;5.70;99.90
25328;DHT22;13279;51.300;12.394;2023-04-08T03:45:40;5.70;99.90
25328;DHT22;13279;51.300;12.394;2023-04-08T03:48:08;5.80;99.90
25328;DHT22;13279;51.300;12.394;2023-04-08T03:50:35;5.80;99.90
25328;DHT22;13279;51.300;12.394;2023-04-08T03:53:03;5.80;99.90
25328;DHT22;13279;51.300;12.394;2023-04-08T03:55:30;5.70;99.90
25328;DHT22;13279;51.300;12.394;2023-04-08T03:58:02;5.70;99.90
25328;DHT22;13279;51.300;12.394;2023-04-08T04:00:30;5.70;99.90
25328;DHT22;13279;51.300;12.394;2023-04-08T04:02:57;5.60;99.90
25328;DHT22;13279;51.300;12.394;2023-04-08T04:05:25;5.60;99.90
25328;DHT22;13279;51.300;12.394;2023-04-08T04:07:53;5.60;99.90
25328;DHT22;13279;51.300;12.394;2023-04-08T04:10:20;5.60;99.90
25328;DHT22;13279;51.300;12.394;2023-04-08T04:12:49;5.60;99.90
25328;DHT22;13279;51.300;12.394;2023-04-08T04:15:18;5.50;99.90
25328;DHT22;13279;51.300;12.394;2023-04-08T04:17:47;5.50;99.90
25328;DHT22;13279;51.300;12.394;2023-04-08T04:20:15;5.50;99.90
25328;DHT22;13279;51.300;12.394;2023-04-08T04:22:43;5.50;99.90
25328;DHT22;13279;51.300;12.394;2023-04-08T04:25:10;5.60;99.90
25328;DHT22;13279;51.300;12.394;2023-04-08T04:27:38;5.60;99.90
25328;DHT22;13279;51.300;12.394;2023-04-08T04:30:07;5.60;99.90
25328;DHT22;13279;51.300;12.394;2023-04-08T04:32:36;5.60;99.90
25328;DHT22;13279;51.300;12.394;2023-04-08T04:35:04;5.60;99.90
25328;DHT22;13279;51.300;12.394;2023-04-08T04:37:32;5.60;99.90
25328;DHT22;13279;51.300;12.394;2023-04-08T04:39:59;5.60;99.90
25328;DHT22;13279;51.300;12.394;2023-04-08T04:42:26;5.60;99.90
25328;DHT22;13279;51.300;12.394;2023-04-08T04:44:54;5.60;99.90
25328;DHT22;13279;51.300;12.394;2023-04-08T04:47:21;5.60;99.90
25328;DHT22;13279;51.300;12.394;2023-04-08T04:49:51;5.60;99.90
25328;DHT22;13279;51.300;12.394;2023-04-08T04:52:18;5.60;99.90
25328;DHT22;13279;51.300;12.394;2023-04-08T04:54:46;5.60;99.90
25328;DHT22;13279;51.300;12.394;2023-04-08T04:57:13;5.60;99.90
25328;DHT22;13279;51.300;12.394;2023-04-08T04:59:40;5.70;99.90
25328;DHT22;13279;51.300;12.394;2023-04-08T05:02:08;5.70;99.90
25328;DHT22;13279;51.300;12.394;2023-04-08T05:04:35;5.70;99.90
25328;DHT22;13279;51.300;12.394;2023-04-08T05:07:04;5.70;99.90
25328;DHT22;13279;51.300;12.394;2023-04-08T05:09:32;5.70;99.90
25328;DHT22;13279;51.300;12.394;2023-04-08T05:12:00;5.70;99.90
25328;DHT22;13279;51.300;12.394;2023-04-08T05:14:28;5.70;99.90
25328;DHT22;13279;51.300;12.394;2023-04-08T05:16:56;5.70;99.90
25328;DHT22;13279;51.300;12.394;2023-04-08T05:19:24;5.70;99.90
25328;DHT22;13279;51.300;12.394;2023-04-08T05:21:51;5.80;99.90
25328;DHT22;13279;51.300;12.394;2023-04-08T05:24:20;5.70;99.90
25328;DHT22;13279;51.300;12.394;2023-04-08T05:26:48;5.70;99.90
25328;DHT22;13279;51.300;12.394;2023-04-08T05:29:18;5.70;99.90
25328;DHT22;13279;51.300;12.394;2023-04-08T05:31:46;5.70;99.90
25328;DHT22;13279;51.300;12.394;2023-04-08T05:34:15;5.70;99.90
25328;DHT22;13279;51.300;12.394;2023-04-08T05:36:48;5.70;99.90
25328;DHT22;13279;51.300;12.394;2023-04-08T05:39:17;5.70;99.90
25328;DHT22;13279;51.300;12.394;2023-04-08T05:41:46;5.70;99.90
25328;DHT22;13279;51.300;12.394;2023-04-08T05:44:13;5.70;99.90
25328;DHT22;13279;51.300;12.394;2023-04-08T05:46:41;5.70;99.90
25328;DHT22;13279;51.300;12.394;2023-04-08T05:49:08;5.70;99.90
25328;DHT22;13279;51.300;12.394;2023-04-08T05:51:37;5.70;99.90
25328;DHT22;13279;51.300;12.394;2023-04-08T05:54:05;5.70;99.90
25328;DHT22;13279;51.300;12.394;2023-04-08T05:56:32;5.70;99.90
25328;DHT22;13279;51.300;12.394;2023-04-08T05:59:02;5.70;99.90
25328;DHT22;13279;51.300;12.394;2023-04-08T06:01:29;5.70;99.90
25328;DHT22;13279;51.300;12.394;2023-04-08T06:03:57;5.70;99.90
25328;DHT22;13279;51.300;12.394;2023-04-08T06:06:24;5.70;99.90
25328;DHT22;13279;51.300;12.394;2023-04-08T06:08:52;5.70;99.90
25328;DHT22;13279;51.300;12.394;2023-04-08T06:11:20;5.70;99.90
25328;DHT22;13279;51.300;12.394;2023-04-08T06:13:47;5.70;99.90
25328;DHT22;13279;51.300;12.394;2023-04-08T06:16:16;5.70;99.90
25328;DHT22;13279;51.300;12.394;2023-04-08T06:18:43;5.70;99.90
25328;DHT22;13279;51.300;12.394;2023-04-08T06:21:11;5.70;99.90
25328;DHT22;13279;51.300;12.394;2023-04-08T06:23:38;5.80;99.90
25328;DHT22;13279;51.300;12.394;2023-04-08T06:26:06;5.80;99.90
25328;DHT22;13279;51.300;12.394;2023-04-08T06:28:33;5.80;99.90
25328;DHT22;13279;51.300;12.394;2023-04-08T06:31:01;5.80;99.90
25328;DHT22;13279;51.300;12.394;2023-04-08T06:33:29;5.80;99.90
25328;DHT22;13279;51.300;12.394;2023-04-08T06:36:03;5.80;99.90
25328;DHT22;13279;51.300;12.394;2023-04-08T06:38:31;5.90;99.90
25328;DHT22;13279;51.300;12.394;2023-04-08T06:41:01;5.90;99.90
25328;DHT22;13279;51.300;12.394;2023-04-08T06:43:30;5.90;99.90
25328;DHT22;13279;51.300;12.394;2023-04-08T06:45:57;5.90;99.90
25328;DHT22;13279;51.300;12.394;2023-04-08T06:48:25;6.00;99.90
25328;DHT22;13279;51.300;12.394;2023-04-08T06:50:57;6.00;99.90
25328;DHT22;13279;51.300;12.394;2023-04-08T06:53:26;5.90;99.90
25328;DHT22;13279;51.300;12.394;2023-04-08T06:55:54;6.00;99.90
25328;DHT22;13279;51.300;12.394;2023-04-08T06:58:21;6.00;99.90
25328;DHT22;13279;51.300;12.394;2023-04-08T07:00:49;6.00;99.90
25328;DHT22;13279;51.300;12.394;2023-04-08T07:03:16;6.00;99.90
25328;DHT22;13279;51.300;12.394;2023-04-08T07:05:43;5.90;99.90
25328;DHT22;13279;51.300;12.394;2023-04-08T07:08:13;5.90;99.90
25328;DHT22;13279;51.300;12.394;2023-04-08T07:10:40;6.00;99.90
25328;DHT22;13279;51.300;12.394;2023-04-08T07:13:08;6.00;99.90
25328;DHT22;13279;51.300;12.394;2023-04-08T07:15:35;6.00;99.90
25328;DHT22;13279;51.300;12.394;2023-04-08T07:18:03;6.00;99.90
25328;DHT22;13279;51.300;12.394;2023-04-08T07:20:31;6.00;99.90
25328;DHT22;13279;51.300;12.394;2023-04-08T07:23:01;6.10;99.90
25328;DHT22;13279;51.300;12.394;2023-04-08T07:25:32;6.10;99.90
25328;DHT22;13279;51.300;12.394;2023-04-08T07:28:01;6.10;99.90
25328;DHT22;13279;51.300;12.394;2023-04-08T07:30:28;6.20;99.90
25328;DHT22;13279;51.300;12.394;2023-04-08T07:32:57;6.10;99.90
25328;DHT22;13279;51.300;12.394;2023-04-08T07:35:24;6.10;99.90
25328;DHT22;13279;51.300;12.394;2023-04-08T07:37:54;6.10;99.90
25328;DHT22;13279;51.300;12.394;2023-04-08T07:40:22;6.20;99.90
25328;DHT22;13279;51.300;12.394;2023-04-08T07:42:52;6.20;99.90
25328;DHT22;13279;51.300;12.394;2023-04-08T07:45:19;6.20;99.90
25328;DHT22;13279;51.300;12.394;2023-04-08T07:47:47;6.20;99.90
25328;DHT22;13279;51.300;12.394;2023-04-08T07:50:14;6.20;99.90
25328;DHT22;13279;51.300;12.394;2023-04-08T07:52:42;6.30;99.90
25328;DHT22;13279;51.300;12.394;2023-04-08T07:55:09;6.30;99.90
25328;DHT22;13279;51.300;12.394;2023-04-08T07:57:37;6.40;99.90
25328;DHT22;13279;51.300;12.394;2023-04-08T08:00:06;6.40;99.90
25328;DHT22;13279;51.300;12.394;2023-04-08T08:02:40;6.50;99.90
25328;DHT22;13279;51.300;12.394;2023-04-08T08:05:08;6.50;99.90
25328;DHT22;13279;51.300;12.394;2023-04-08T08:07:35;6.50;99.90
25328;DHT22;13279;51.300;12.394;2023-04-08T08:10:03;6.60;99.90
25328;DHT22;13279;51.300;12.394;2023-04-08T08:12:31;6.70;99.90
25328;DHT22;13279;51.300;12.394;2023-04-08T08:14:58;6.80;99.90
25328;DHT22;13279;51.300;12.394;2023-04-08T08:17:27;6.80;99.90
25328;DHT22;13279;51.300;12.394;2023-04-08T08:19:56;6.90;99.90
25328;DHT22;13279;51.300;12.394;2023-04-08T08:22:23;7.00;99.90
25328;DHT22;13279;51.300;12.394;2023-04-08T08:24:54;7.00;99.90
25328;DHT22;13279;51.300;12.394;2023-04-08T08:27:23;7.00;99.90
25328;DHT22;13279;51.300;12.394;2023-04-08T08:29:50;7.20;99.90
25328;DHT22;13279;51.300;12.394;2023-04-08T08:32:18;7.40;99.90
25328;DHT22;13279;51.300;12.394;2023-04-08T08:34:46;7.50;99.90
25328;DHT22;13279;51.300;12.394;2023-04-08T08:37:14;7.50;99.90
25328;DHT22;13279;51.300;12.394;2023-04-08T08:39:41;7.50;99.90
25328;DHT22;13279;51.300;12.394;2023-04-08T08:42:18;7.40;99.90
25328;DHT22;13279;51.300;12.394;2023-04-08T08:44:47;7.40;99.90
25328;DHT22;13279;51.300;12.394;2023-04-08T08:47:14;7.50;99.90
25328;DHT22;13279;51.300;12.394;2023-04-08T08:49:42;7.40;99.90
25328;DHT22;13279;51.300;12.394;2023-04-08T08:52:15;7.50;99.90
25328;DHT22;13279;51.300;12.394;2023-04-08T08:54:43;7.50;99.90
25328;DHT22;13279;51.300;12.394;2023-04-08T08:57:16;7.50;99.90
25328;DHT22;13279;51.300;12.394;2023-04-08T08:59:45;7.60;99.90
25328;DHT22;13279;51.300;12.394;2023-04-08T09:02:28;7.70;99.90
25328;DHT22;13279;51.300;12.394;2023-04-08T09:04:58;7.80;99.90
25328;DHT22;13279;51.300;12.394;2023-04-08T09:07:29;8.00;99.90
25328;DHT22;13279;51.300;12.394;2023-04-08T09:09:59;8.00;99.90
25328;DHT22;13279;51.300;12.394;2023-04-08T09:12:27;8.10;99.90
25328;DHT22;13279;51.300;12.394;2023-04-08T09:15:06;8.10;99.90
25328;DHT22;13279;51.300;12.394;2023-04-08T09:17:35;8.20;99.90
25328;DHT22;13279;51.300;12.394;2023-04-08T09:20:04;8.20;99.90
25328;DHT22;13279;51.300;12.394;2023-04-08T09:22:54;8.20;99.90
25328;DHT22;13279;51.300;12.394;2023-04-08T09:25:23;8.40;99.90
25328;DHT22;13279;51.300;12.394;2023-04-08T09:27:51;8.40;99.90
25328;DHT22;13279;51.300;12.394;2023-04-08T09:30:25;8.20;99.90
25328;DHT22;13279;51.300;12.394;2023-04-08T09:33:09;8.20;99.90
25328;DHT22;13279;51.300;12.394;2023-04-08T09:35:37;8.30;99.90
25328;DHT22;13279;51.300;12.394;2023-04-08T09:41:06;8.50;99.90
25328;DHT22;13279;51.300;12.394;2023-04-08T09:43:48;8.70;99.90
25328;DHT22;13279;51.300;12.394;2023-04-08T09:46:25;8.70;99.90
25328;DHT22;13279;51.300;12.394;2023-04-08T09:49:03;8.70;99.90
25328;DHT22;13279;51.300;12.394;2023-04-08T09:51:35;8.70;99.90
25328;DHT22;13279;51.300;12.394;2023-04-08T09:54:12;8.60;99.90
25328;DHT22;13279;51.300;12.394;2023-04-08T09:57:02;8.60;99.90
25328;DHT22;13279;51.300;12.394;2023-04-08T09:59:34;8.60;99.90
25328;DHT22;13279;51.300;12.394;2023-04-08T10:02:11;8.50;99.90
25328;DHT22;13279;51.300;12.394;2023-04-08T10:05:02;8.50;99.90
25328;DHT22;13279;51.300;12.394;2023-04-08T10:07:30;8.50;99.90
25328;DHT22;13279;51.300;12.394;2023-04-08T10:10:11;8.50;99.90
25328;DHT22;13279;51.300;12.394;2023-04-08T10:12:50;8.50;99.90
25328;DHT22;13279;51.300;12.394;2023-04-08T10:15:24;8.60;99.90
25328;DHT22;13279;51.300;12.394;2023-04-08T10:17:55;8.50;99.90
25328;DHT22;13279;51.300;12.394;2023-04-08T10:22:55;8.40;99.90
25328;DHT22;13279;51.300;12.394;2023-04-08T10:25:30;8.40;99.90
25328;DHT22;13279;51.300;12.394;2023-04-08T10:28:01;8.40;99.90
25328;DHT22;13279;51.300;12.394;2023-04-08T10:30:42;8.40;99.90
25328;DHT22;13279;51.300;12.394;2023-04-08T10:33:12;8.30;99.90
25328;DHT22;13279;51.300;12.394;2023-04-08T10:35:42;8.30;99.90
25328;DHT22;13279;51.300;12.394;2023-04-08T10:38:12;8.40;99.90
25328;DHT22;13279;51.300;12.394;2023-04-08T10:40:40;8.40;99.90
25328;DHT22;13279;51.300;12.394;2023-04-08T10:43:10;8.40;99.90
25328;DHT22;13279;51.300;12.394;2023-04-08T10:45:37;8.40;99.90
25328;DHT22;13279;51.300;12.394;2023-04-08T10:48:16;8.50;99.90
25328;DHT22;13279;51.300;12.394;2023-04-08T10:50:51;8.60;99.90
25328;DHT22;13279;51.300;12.394;2023-04-08T10:53:25;8.60;99.90
25328;DHT22;13279;51.300;12.394;2023-04-08T10:55:53;8.80;99.90
25328;DHT22;13279;51.300;12.394;2023-04-08T10:58:22;8.90;99.90
25328;DHT22;13279;51.300;12.394;2023-04-08T11:00:50;9.00;99.90
25328;DHT22;13279;51.300;12.394;2023-04-08T11:03:18;8.90;99.90
25328;DHT22;13279;51.300;12.394;2023-04-08T11:05:48;9.00;99.90
25328;DHT22;13279;51.300;12.394;2023-04-08T11:08:17;9.00;99.90
25328;DHT22;13279;51.300;12.394;2023-04-08T11:10:46;9.00;99.90
25328;DHT22;13279;51.300;12.394;2023-04-08T11:13:15;9.00;99.90
25328;DHT22;13279;51.300;12.394;2023-04-08T11:15:44;9.00;99.90
25328;DHT22;13279;51.300;12.394;2023-04-08T11:18:12;9.00;99.90
25328;DHT22;13279;51.300;12.394;2023-04-08T11:20:40;8.90;99.90
25328;DHT22;13279;51.300;12.394;2023-04-08T11:23:12;8.90;99.90
25328;DHT22;13279;51.300;12.394;2023-04-08T11:25:41;9.00;99.90
25328;DHT22;13279;51.300;12.394;2023-04-08T11:28:09;9.10;99.90
25328;DHT22;13279;51.300;12.394;2023-04-08T11:30:38;9.10;99.90
25328;DHT22;13279;51.300;12.394;2023-04-08T11:33:07;9.20;99.90
25328;DHT22;13279;51.300;12.394;2023-04-08T11:35:39;9.20;99.90
25328;DHT22;13279;51.300;12.394;2023-04-08T11:38:08;9.20;99.90
25328;DHT22;13279;51.300;12.394;2023-04-08T11:40:36;9.30;99.90
25328;DHT22;13279;51.300;12.394;2023-04-08T11:43:10;9.30;99.90
25328;DHT22;13279;51.300;12.394;2023-04-08T11:45:41;9.40;99.90
25328;DHT22;13279;51.300;12.394;2023-04-08T11:48:16;9.50;99.90
25328;DHT22;13279;51.300;12.394;2023-04-08T11:51:00;9.70;99.90
25328;DHT22;13279;51.300;12.394;2023-04-08T11:53:41;9.90;99.90
25328;DHT22;13279;51.300;12.394;2023-04-08T11:56:16;10.10;99.90
25328;DHT22;13279;51.300;12.394;2023-04-08T11:58:44;10.30;99.90
25328;DHT22;13279;51.300;12.394;2023-04-08T12:01:19;10.40;1.00
25328;DHT22;13279;51.300;12.394;2023-04-08T12:04:00;10.60;1.00
25328;DHT22;13279;51.300;12.394;2023-04-08T12:06:28;10.60;1.00
25328;DHT22;13279;51.300;12.394;2023-04-08T12:08:57;10.70;1.00
25328;DHT22;13279;51.300;12.394;2023-04-08T12:11:31;10.70;1.00
25328;DHT22;13279;51.300;12.394;2023-04-08T12:14:02;10.70;1.00
25328;DHT22;13279;51.300;12.394;2023-04-08T12:16:30;10.60;1.00
25328;DHT22;13279;51.300;12.394;2023-04-08T12:19:03;10.70;1.00
25328;DHT22;13279;51.300;12.394;2023-04-08T12:21:31;10.60;1.00
25328;DHT22;13279;51.300;12.394;2023-04-08T12:23:59;10.60;1.00
25328;DHT22;13279;51.300;12.394;2023-04-08T12:26:27;10.50;1.00
25328;DHT22;13279;51.300;12.394;2023-04-08T12:28:55;10.50;1.00
25328;DHT22;13279;51.300;12.394;2023-04-08T12:31:23;10.50;1.00
25328;DHT22;13279;51.300;12.394;2023-04-08T12:33:52;10.50;1.00
25328;DHT22;13279;51.300;12.394;2023-04-08T12:36:27;10.50;1.00
25328;DHT22;13279;51.300;12.394;2023-04-08T12:38:55;10.60;1.00
25328;DHT22;13279;51.300;12.394;2023-04-08T12:41:22;10.60;1.00
25328;DHT22;13279;51.300;12.394;2023-04-08T12:43:50;10.50;1.00
25328;DHT22;13279;51.300;12.394;2023-04-08T12:46:18;10.60;1.00
25328;DHT22;13279;51.300;12.394;2023-04-08T12:48:48;10.50;99.90
25328;DHT22;13279;51.300;12.394;2023-04-08T12:51:16;10.30;99.90
25328;DHT22;13279;51.300;12.394;2023-04-08T12:53:48;10.30;99.90
25328;DHT22;13279;51.300;12.394;2023-04-08T12:56:16;10.30;99.90
25328;DHT22;13279;51.300;12.394;2023-04-08T12:58:48;10.20;99.90
25328;DHT22;13279;51.300;12.394;2023-04-08T13:01:16;10.30;99.90
25328;DHT22;13279;51.300;12.394;2023-04-08T13:03:44;10.40;99.90
25328;DHT22;13279;51.300;12.394;2023-04-08T13:06:12;10.30;99.90
25328;DHT22;13279;51.300;12.394;2023-04-08T13:08:41;10.30;99.90
25328;DHT22;13279;51.300;12.394;2023-04-08T13:11:09;10.30;99.90
25328;DHT22;13279;51.300;12.394;2023-04-08T13:13:37;10.30;99.90
25328;DHT22;13279;51.300;12.394;2023-04-08T13:16:04;10.40;99.90
25328;DHT22;13279;51.300;12.394;2023-04-08T13:18:32;10.40;99.90
25328;DHT22;13279;51.300;12.394;2023-04-08T13:21:00;10.40;99.90
25328;DHT22;13279;51.300;12.394;2023-04-08T13:23:27;10.50;99.90
25328;DHT22;13279;51.300;12.394;2023-04-08T13:25:55;10.50;99.90
25328;DHT22;13279;51.300;12.394;2023-04-08T13:29:27;10.70;99.90
25328;DHT22;13279;51.300;12.394;2023-04-08T13:32:53;10.80;99.90
25328;DHT22;13279;51.300;12.394;2023-04-08T13:36:27;10.80;99.90
25328;DHT22;13279;51.300;12.394;2023-04-08T13:39:40;10.80;99.90
25328;DHT22;13279;51.300;12.394;2023-04-08T13:42:51;10.70;99.90
25328;DHT22;13279;51.300;12.394;2023-04-08T13:45:55;10.70;99.90
25328;DHT22;13279;51.300;12.394;2023-04-08T13:48:41;10.60;99.90
25328;DHT22;13279;51.300;12.394;2023-04-08T13:51:28;10.60;99.90
25328;DHT22;13279;51.300;12.394;2023-04-08T13:57:59;10.70;99.90
25328;DHT22;13279;51.300;12.394;2023-04-08T14:01:11;10.80;99.90
25328;DHT22;13279;51.300;12.394;2023-04-08T14:10:51;10.60;99.90
25328;DHT22;13279;51.300;12.394;2023-04-08T14:16:47;10.50;99.90
25328;DHT22;13279;51.300;12.394;2023-04-08T14:19:31;10.50;99.90
25328;DHT22;13279;51.300;12.394;2023-04-08T14:22:29;10.60;99.90
25328;DHT22;13279;51.300;12.394;2023-04-08T14:25:49;10.60;99.90
25328;DHT22;13279;51.300;12.394;2023-04-08T14:28:46;10.50;99.90
25328;DHT22;13279;51.300;12.394;2023-04-08T14:35:31;10.60;99.90
25328;DHT22;13279;51.300;12.394;2023-04-08T14:38:45;10.60;99.90
25328;DHT22;13279;51.300;12.394;2023-04-08T14:45:24;10.20;99.90
25328;DHT22;13279;51.300;12.394;2023-04-08T14:48:37;10.10;99.90
25328;DHT22;13279;51.300;12.394;2023-04-08T14:51:30;10.20;99.90
25328;DHT22;13279;51.300;12.394;2023-04-08T14:54:48;10.20;99.90
25328;DHT22;13279;51.300;12.394;2023-04-08T14:57:46;10.40;99.90
25328;DHT22;13279;51.300;12.394;2023-04-08T15:00:44;10.50;99.90
25328;DHT22;13279;51.300;12.394;2023-04-08T15:03:50;10.90;99.90
25328;DHT22;13279;51.300;12.394;2023-04-08T15:07:08;10.80;99.90
25328;DHT22;13279;51.300;12.394;2023-04-08T15:10:12;11.20;99.90
25328;DHT22;13279;51.300;12.394;2023-04-08T15:13:20;11.40;99.90
25328;DHT22;13279;51.300;12.394;2023-04-08T15:16:31;11.30;99.90
25328;DHT22;13279;51.300;12.394;2023-04-08T15:19:43;11.30;99.90
25328;DHT22;13279;51.300;12.394;2023-04-08T15:22:41;11.10;99.90
25328;DHT22;13279;51.300;12.394;2023-04-08T15:29:10;11.60;99.90
25328;DHT22;13279;51.300;12.394;2023-04-08T15:32:19;12.40;99.90
25328;DHT22;13279;51.300;12.394;2023-04-08T15:35:22;12.70;99.90
25328;DHT22;13279;51.300;12.394;2023-04-08T15:41:18;11.90;99.90
25328;DHT22;13279;51.300;12.394;2023-04-08T15:44:21;11.40;99.90
25328;DHT22;13279;51.300;12.394;2023-04-08T15:47:12;11.10;99.90
25328;DHT22;13279;51.300;12.394;2023-04-08T15:50:37;11.30;99.90
25328;DHT22;13279;51.300;12.394;2023-04-08T15:53:48;11.70;99.90
25328;DHT22;13279;51.300;12.394;2023-04-08T16:00:01;12.50;99.90
25328;DHT22;13279;51.300;12.394;2023-04-08T16:03:25;12.80;99.90
25328;DHT22;13279;51.300;12.394;2023-04-08T16:06:42;12.40;99.90
25328;DHT22;13279;51.300;12.394;2023-04-08T16:12:48;11.40;99.90
25328;DHT22;13279;51.300;12.394;2023-04-08T16:15:50;10.70;99.90
25328;DHT22;13279;51.300;12.394;2023-04-08T16:19:05;10.50;99.90
25328;DHT22;13279;51.300;12.394;2023-04-08T16:22:22;10.30;99.90
25328;DHT22;13279;51.300;12.394;2023-04-08T16:25:33;10.20;99.90
25328;DHT22;13279;51.300;12.394;2023-04-08T16:28:27;10.20;99.90
25328;DHT22;13279;51.300;12.394;2023-04-08T16:31:26;10.10;99.90
25328;DHT22;13279;51.300;12.394;2023-04-08T16:34:29;10.10;99.90
25328;DHT22;13279;51.300;12.394;2023-04-08T16:37:39;10.00;99.90
25328;DHT22;13279;51.300;12.394;2023-04-08T16:40:45;9.80;99.90
25328;DHT22;13279;51.300;12.394;2023-04-08T16:43:50;9.70;99.90
25328;DHT22;13279;51.300;12.394;2023-04-08T16:46:51;10.10;99.90
25328;DHT22;13279;51.300;12.394;2023-04-08T16:49:58;10.20;99.90
25328;DHT22;13279;51.300;12.394;2023-04-08T16:53:10;10.30;99.90
25328;DHT22;13279;51.300;12.394;2023-04-08T16:56:13;10.10;99.90